createdAt,value
2022-12-26T00:00:12.143Z,12.10
2022-12-26T00:02:43.192Z,12.10
2022-12-26T00:05:15.546Z,12.10
2022-12-26T00:07:46.834Z,12.10
2022-12-26T00:10:17.806Z,12.10
2022-12-26T00:12:48.675Z,12.10
2022-12-26T00:15:19.607Z,11.90
2022-12-26T00:17:50.442Z,12.00
2022-12-26T00:20:21.541Z,12.00
2022-12-26T00:22:54.856Z,11.90
2022-12-26T00:25:26.135Z,11.90
2022-12-26T00:27:57.263Z,11.90
2022-12-26T00:30:28.321Z,11.80
2022-12-26T00:32:59.264Z,11.70
2022-12-26T00:35:30.632Z,11.60
2022-12-26T00:38:01.505Z,11.70
2022-12-26T00:40:32.389Z,11.70
2022-12-26T00:43:03.256Z,11.90
2022-12-26T00:45:34.152Z,12.00
2022-12-26T00:48:05.317Z,11.90
2022-12-26T00:50:36.208Z,11.90
2022-12-26T00:53:07.173Z,11.80
2022-12-26T00:55:38.184Z,11.90
2022-12-26T00:58:09.124Z,11.80
2022-12-26T01:00:40.135Z,11.80
2022-12-26T01:03:12.452Z,11.70
2022-12-26T01:05:51.852Z,11.80
2022-12-26T01:08:24.962Z,11.80
2022-12-26T01:10:56.113Z,11.80
2022-12-26T01:13:27.005Z,11.70
2022-12-26T01:15:58.094Z,11.70
2022-12-26T01:18:29.791Z,11.70
2022-12-26T01:21:07.492Z,11.70
2022-12-26T01:23:38.430Z,11.60
2022-12-26T01:26:17.793Z,11.60
2022-12-26T01:28:53.062Z,11.60
2022-12-26T01:31:24.591Z,11.70
2022-12-26T01:33:55.486Z,11.50
2022-12-26T01:36:26.366Z,11.50
2022-12-26T01:38:57.242Z,11.40
2022-12-26T01:41:28.129Z,11.50
2022-12-26T01:44:00.647Z,11.40
2022-12-26T01:46:44.599Z,11.40
2022-12-26T01:49:31.763Z,11.40
2022-12-26T01:52:09.901Z,11.30
2022-12-26T01:54:44.999Z,11.30
2022-12-26T01:57:30.648Z,11.20
2022-12-26T02:00:03.978Z,11.30
2022-12-26T02:02:55.148Z,11.30
2022-12-26T02:05:35.781Z,11.30
2022-12-26T02:08:12.183Z,11.40
2022-12-26T02:10:59.211Z,11.30
2022-12-26T02:13:31.801Z,11.30
2022-12-26T02:16:08.460Z,11.30
2022-12-26T02:18:39.721Z,11.40
2022-12-26T02:21:32.164Z,11.40
2022-12-26T02:24:26.839Z,11.30
2022-12-26T02:27:00.775Z,11.30
2022-12-26T02:30:05.082Z,11.10
2022-12-26T02:33:16.534Z,11.10
2022-12-26T02:36:13.920Z,11.10
2022-12-26T02:38:56.686Z,11.10
2022-12-26T02:41:33.366Z,11.30
2022-12-26T02:44:43.755Z,11.20
2022-12-26T02:47:30.493Z,11.20
2022-12-26T02:50:32.932Z,11.40
2022-12-26T02:53:50.408Z,11.40
2022-12-26T02:57:08.402Z,11.50
2022-12-26T03:00:25.816Z,11.50
2022-12-26T03:03:38.665Z,11.50
2022-12-26T03:06:34.404Z,11.60
2022-12-26T03:09:35.130Z,11.70
2022-12-26T03:12:58.752Z,11.80
2022-12-26T03:15:52.501Z,11.70
2022-12-26T03:18:57.847Z,11.80
2022-12-26T03:21:23.431Z,11.90
2022-12-26T03:23:56.875Z,11.90
2022-12-26T03:26:41.480Z,11.90
2022-12-26T03:29:37.934Z,11.70
2022-12-26T03:32:13.205Z,11.90
2022-12-26T03:34:45.233Z,11.80
2022-12-26T03:37:49.075Z,11.90
2022-12-26T03:40:51.183Z,11.90
2022-12-26T03:44:08.945Z,11.90
2022-12-26T03:47:38.889Z,12.00
2022-12-26T03:50:52.440Z,12.00
2022-12-26T03:53:47.743Z,11.90
2022-12-26T03:56:44.661Z,11.90
2022-12-26T03:59:44.306Z,12.00
2022-12-26T04:02:35.802Z,12.00
2022-12-26T04:05:27.564Z,12.10
2022-12-26T04:08:21.919Z,12.10
2022-12-26T04:11:17.735Z,12.10
2022-12-26T04:14:54.661Z,12.00
2022-12-26T04:18:15.120Z,12.00
2022-12-26T04:21:34.549Z,12.10
2022-12-26T04:24:45.082Z,12.00
2022-12-26T04:27:38.026Z,11.90
2022-12-26T04:30:28.280Z,11.90
2022-12-26T04:33:44.247Z,12.00
2022-12-26T04:36:51.354Z,12.00
2022-12-26T04:39:48.087Z,11.80
2022-12-26T04:42:39.875Z,11.80
2022-12-26T04:45:11.638Z,11.80
2022-12-26T04:48:02.588Z,11.80
2022-12-26T04:50:33.482Z,11.80
2022-12-26T04:53:04.467Z,11.80
2022-12-26T04:55:36.349Z,11.90
2022-12-26T04:58:07.227Z,11.90
2022-12-26T05:00:38.219Z,11.90
2022-12-26T05:03:32.511Z,11.90
2022-12-26T05:06:22.380Z,11.80
2022-12-26T05:09:12.208Z,11.90
2022-12-26T05:11:47.267Z,11.90
2022-12-26T05:14:18.309Z,12.00
2022-12-26T05:17:07.952Z,12.00
2022-12-26T05:19:57.026Z,12.00
2022-12-26T05:22:51.018Z,12.00
2022-12-26T05:25:50.018Z,11.90
2022-12-26T05:28:40.135Z,12.00
2022-12-26T05:31:17.352Z,12.00
2022-12-26T05:34:07.241Z,12.00
2022-12-26T05:36:46.503Z,12.00
2022-12-26T05:39:18.058Z,12.10
2022-12-26T05:41:49.080Z,12.10
2022-12-26T05:44:19.947Z,12.20
2022-12-26T05:46:50.970Z,12.20
2022-12-26T05:49:21.882Z,12.10
2022-12-26T05:51:52.759Z,12.10
2022-12-26T05:54:23.635Z,12.10
2022-12-26T05:56:54.529Z,12.00
2022-12-26T05:59:25.516Z,12.00
2022-12-26T06:01:56.525Z,12.10
2022-12-26T06:04:27.611Z,12.10
2022-12-26T06:06:58.484Z,12.10
2022-12-26T06:09:29.437Z,12.20
2022-12-26T06:12:00.392Z,12.20
2022-12-26T06:14:31.247Z,12.20
2022-12-26T06:17:02.336Z,12.10
2022-12-26T06:19:33.201Z,12.10
2022-12-26T06:22:04.139Z,12.10
2022-12-26T06:24:35.128Z,12.10
2022-12-26T06:27:06.106Z,12.00
2022-12-26T06:29:40.174Z,12.00
2022-12-26T06:32:11.069Z,12.00
2022-12-26T06:34:41.931Z,12.10
2022-12-26T06:37:12.871Z,12.10
2022-12-26T06:39:43.733Z,11.90
2022-12-26T06:42:14.624Z,12.00
2022-12-26T06:44:45.503Z,12.00
2022-12-26T06:47:16.527Z,12.10
2022-12-26T06:49:47.531Z,12.00
2022-12-26T06:52:18.398Z,12.00
2022-12-26T06:54:49.276Z,12.10
2022-12-26T06:57:20.270Z,12.00
2022-12-26T06:59:51.131Z,12.10
2022-12-26T07:02:23.426Z,12.10
2022-12-26T07:04:54.450Z,12.10
2022-12-26T07:07:25.387Z,12.10
2022-12-26T07:09:57.140Z,12.10
2022-12-26T07:12:28.051Z,12.10
2022-12-26T07:15:01.563Z,12.10
2022-12-26T07:17:33.023Z,12.00
2022-12-26T07:20:05.435Z,12.00
2022-12-26T07:22:36.312Z,12.00
2022-12-26T07:25:07.885Z,12.00
2022-12-26T07:27:38.775Z,11.90
2022-12-26T07:30:10.537Z,11.90
2022-12-26T07:32:41.589Z,12.00
2022-12-26T07:35:12.485Z,12.00
2022-12-26T07:37:43.347Z,11.90
2022-12-26T07:40:14.393Z,12.00
2022-12-26T07:42:45.241Z,12.00
2022-12-26T07:45:16.265Z,11.90
2022-12-26T07:47:47.135Z,11.80
2022-12-26T07:50:18.030Z,11.90
2022-12-26T07:52:48.918Z,11.80
2022-12-26T07:55:20.418Z,11.80
2022-12-26T07:57:52.629Z,11.90
2022-12-26T08:00:23.617Z,11.70
2022-12-26T08:02:54.697Z,11.80
2022-12-26T08:05:25.665Z,11.90
2022-12-26T08:07:56.694Z,11.90
2022-12-26T08:10:27.706Z,12.00
2022-12-26T08:12:58.693Z,11.90
2022-12-26T08:15:29.590Z,11.80
2022-12-26T08:18:00.465Z,11.70
2022-12-26T08:20:31.761Z,11.60
2022-12-26T08:23:02.604Z,11.50
2022-12-26T08:25:33.495Z,11.40
2022-12-26T08:28:04.686Z,11.50
2022-12-26T08:30:35.754Z,11.50
2022-12-26T08:33:07.299Z,11.50
2022-12-26T08:35:39.468Z,11.50
2022-12-26T08:38:10.362Z,11.40
2022-12-26T08:40:43.979Z,11.40
2022-12-26T08:43:44.966Z,11.50
2022-12-26T08:46:10.301Z,11.40
2022-12-26T08:48:42.069Z,11.40
2022-12-26T08:51:23.794Z,11.40
2022-12-26T08:53:55.690Z,11.40
2022-12-26T08:56:28.884Z,11.40
2022-12-26T08:58:59.739Z,11.60
2022-12-26T09:01:32.153Z,11.60
2022-12-26T09:04:04.674Z,11.40
2022-12-26T09:06:38.672Z,11.60
2022-12-26T09:09:11.604Z,11.60
2022-12-26T09:11:43.104Z,11.60
2022-12-26T09:14:14.045Z,11.50
2022-12-26T09:16:50.327Z,11.60
2022-12-26T09:19:22.687Z,11.70
2022-12-26T09:22:13.527Z,11.60
2022-12-26T09:24:44.451Z,11.40
2022-12-26T09:27:15.365Z,11.30
2022-12-26T09:29:48.555Z,11.30
2022-12-26T09:32:19.468Z,11.20
2022-12-26T09:34:50.307Z,11.30
2022-12-26T09:37:21.237Z,11.40
2022-12-26T09:39:52.156Z,11.30
2022-12-26T09:42:53.440Z,11.20
2022-12-26T09:46:07.441Z,11.20
2022-12-26T09:48:58.824Z,11.10
2022-12-26T09:51:33.625Z,11.10
2022-12-26T09:54:09.957Z,11.10
2022-12-26T09:59:52.492Z,11.00
2022-12-26T10:02:26.507Z,11.00
2022-12-26T10:04:57.575Z,11.00
2022-12-26T10:07:44.309Z,11.70
2022-12-26T10:10:38.893Z,12.30
2022-12-26T10:13:22.360Z,12.50
2022-12-26T10:16:32.160Z,12.60
2022-12-26T10:19:33.100Z,12.60
2022-12-26T10:22:33.571Z,12.20
2022-12-26T10:25:30.340Z,12.20
2022-12-26T10:28:15.188Z,12.10
2022-12-26T10:30:47.726Z,12.00
2022-12-26T10:33:36.771Z,11.90
2022-12-26T10:36:27.668Z,11.80
2022-12-26T10:39:01.637Z,11.80
2022-12-26T10:41:47.461Z,11.70
2022-12-26T10:44:21.350Z,11.70
2022-12-26T10:47:21.222Z,11.80
2022-12-26T10:49:52.477Z,12.00
2022-12-26T10:52:32.312Z,12.10
2022-12-26T10:55:28.554Z,11.90
2022-12-26T10:57:55.166Z,12.10
2022-12-26T11:00:28.540Z,12.00
2022-12-26T11:03:13.321Z,11.90
2022-12-26T11:06:10.129Z,12.40
2022-12-26T11:08:49.659Z,12.70
2022-12-26T11:11:27.226Z,13.00
2022-12-26T11:14:02.536Z,13.10
2022-12-26T11:16:37.893Z,13.20
2022-12-26T11:19:33.180Z,13.60
2022-12-26T11:22:25.410Z,13.70
2022-12-26T11:25:30.465Z,13.30
2022-12-26T11:28:25.509Z,12.90
2022-12-26T11:30:57.693Z,12.50
2022-12-26T11:33:34.300Z,12.10
2022-12-26T11:36:23.472Z,11.90
2022-12-26T11:39:00.314Z,11.90
2022-12-26T11:41:40.339Z,12.00
2022-12-26T11:44:28.613Z,11.90
2022-12-26T11:47:12.871Z,12.00
2022-12-26T11:50:10.468Z,11.90
2022-12-26T11:52:56.416Z,11.80
2022-12-26T11:55:35.591Z,11.90
2022-12-26T11:58:09.638Z,11.90
2022-12-26T12:01:05.791Z,11.90
2022-12-26T12:03:49.299Z,11.90
2022-12-26T12:06:58.610Z,11.80
2022-12-26T12:09:45.440Z,11.90
2022-12-26T12:12:40.261Z,11.90
2022-12-26T12:15:25.548Z,11.90
2022-12-26T12:18:31.666Z,12.00
2022-12-26T12:21:29.738Z,11.90
2022-12-26T12:24:48.853Z,11.90
2022-12-26T12:27:47.588Z,12.00
2022-12-26T12:30:29.232Z,12.10
2022-12-26T12:33:38.826Z,12.20
2022-12-26T12:36:12.979Z,12.20
2022-12-26T12:39:06.025Z,12.10
2022-12-26T12:42:34.947Z,12.10
2022-12-26T12:45:33.526Z,12.10
2022-12-26T12:48:19.292Z,12.00
2022-12-26T12:51:20.545Z,12.10
2022-12-26T12:54:21.357Z,12.10
2022-12-26T12:57:30.442Z,12.00
2022-12-26T13:00:18.191Z,12.00
2022-12-26T13:03:02.638Z,11.90
2022-12-26T13:06:07.066Z,12.00
2022-12-26T13:08:54.488Z,11.90
2022-12-26T13:11:38.068Z,11.90
2022-12-26T13:14:49.440Z,11.90
2022-12-26T13:17:46.483Z,11.90
2022-12-26T13:20:33.208Z,12.00
2022-12-26T13:23:38.298Z,11.90
2022-12-26T13:26:21.011Z,11.90
2022-12-26T13:29:17.749Z,12.00
2022-12-26T13:31:48.779Z,11.90
2022-12-26T13:34:21.557Z,11.90
2022-12-26T13:36:58.452Z,11.90
2022-12-26T13:39:35.900Z,11.90
2022-12-26T13:42:28.027Z,11.90
2022-12-26T13:45:37.437Z,12.00
2022-12-26T13:48:36.994Z,12.10
2022-12-26T13:51:49.321Z,12.10
2022-12-26T13:54:22.643Z,12.10
2022-12-26T13:57:25.610Z,12.20
2022-12-26T14:00:24.040Z,12.20
2022-12-26T14:03:42.707Z,12.20
2022-12-26T14:06:44.446Z,12.10
2022-12-26T14:09:40.340Z,12.00
2022-12-26T14:12:35.946Z,12.00
2022-12-26T14:15:22.258Z,12.00
2022-12-26T14:18:30.168Z,12.10
2022-12-26T14:21:46.861Z,12.10
2022-12-26T14:24:32.313Z,12.00
2022-12-26T14:27:50.329Z,12.00
2022-12-26T14:30:27.395Z,12.00
2022-12-26T14:33:29.023Z,12.00
2022-12-26T14:36:19.400Z,12.00
2022-12-26T14:39:13.206Z,12.00
2022-12-26T14:42:24.508Z,11.90
2022-12-26T14:44:58.570Z,11.90
2022-12-26T14:47:49.942Z,12.00
2022-12-26T14:50:32.973Z,11.90
2022-12-26T14:53:28.734Z,11.90
2022-12-26T14:56:27.154Z,11.90
2022-12-26T14:59:34.817Z,11.90
2022-12-26T15:02:34.478Z,11.90
2022-12-26T15:05:11.856Z,12.00
2022-12-26T15:08:20.466Z,11.90
2022-12-26T15:11:19.344Z,11.90
2022-12-26T15:14:14.235Z,11.90
2022-12-26T15:17:09.119Z,11.80
2022-12-26T15:20:20.011Z,11.80
2022-12-26T15:23:17.069Z,11.80
2022-12-26T15:26:31.001Z,11.70
2022-12-26T15:29:29.793Z,11.80
2022-12-26T15:32:19.496Z,11.70
2022-12-26T15:35:01.829Z,11.70
2022-12-26T15:38:00.401Z,11.60
2022-12-26T15:40:37.831Z,11.70
2022-12-26T15:43:23.499Z,11.80
2022-12-26T15:46:22.271Z,11.70
2022-12-26T15:49:23.812Z,11.60
2022-12-26T15:52:44.752Z,11.60
2022-12-26T15:55:18.680Z,11.80
2022-12-26T15:57:54.423Z,11.80
2022-12-26T16:00:31.001Z,11.80
2022-12-26T16:03:19.815Z,11.70
2022-12-26T16:06:32.494Z,11.70
2022-12-26T16:09:22.105Z,11.80
2022-12-26T16:11:57.192Z,11.80
2022-12-26T16:14:39.741Z,11.70
2022-12-26T16:17:18.020Z,11.60
2022-12-26T16:19:52.229Z,11.70
2022-12-26T16:22:47.299Z,11.60
2022-12-26T16:25:25.365Z,11.60
2022-12-26T16:27:58.832Z,11.50
2022-12-26T16:30:36.958Z,11.50
2022-12-26T16:33:08.265Z,11.40
2022-12-26T16:35:42.114Z,11.40
2022-12-26T16:38:18.474Z,11.50
2022-12-26T16:40:51.597Z,11.40
2022-12-26T16:43:29.132Z,11.40
2022-12-26T16:46:03.734Z,11.60
2022-12-26T16:48:36.873Z,11.60
2022-12-26T16:51:42.715Z,11.60
2022-12-26T16:54:22.675Z,11.70
2022-12-26T16:57:08.221Z,11.70
2022-12-26T16:59:52.946Z,11.70
2022-12-26T17:02:32.010Z,11.50
2022-12-26T17:05:15.868Z,11.50
2022-12-26T17:07:49.921Z,11.60
2022-12-26T17:10:34.068Z,11.40
2022-12-26T17:13:09.605Z,11.50
2022-12-26T17:15:54.293Z,11.70
2022-12-26T17:18:39.879Z,11.60
2022-12-26T17:21:29.277Z,11.60
2022-12-26T17:24:26.167Z,11.60
2022-12-26T17:27:26.481Z,11.60
2022-12-26T17:30:19.971Z,11.50
2022-12-26T17:32:50.941Z,11.50
2022-12-26T17:35:27.125Z,11.50
2022-12-26T17:38:04.396Z,11.50
2022-12-26T17:40:41.011Z,11.40
2022-12-26T17:43:11.819Z,11.40
2022-12-26T17:45:46.827Z,11.30
2022-12-26T17:48:18.220Z,11.30
2022-12-26T17:50:55.232Z,11.20
2022-12-26T17:53:38.198Z,11.20
2022-12-26T17:56:16.925Z,11.20
2022-12-26T17:58:49.555Z,11.30
2022-12-26T18:01:22.212Z,11.20
2022-12-26T18:03:53.433Z,11.00
2022-12-26T18:06:24.571Z,10.90
2022-12-26T18:08:55.442Z,10.90
2022-12-26T18:11:26.295Z,10.80
2022-12-26T18:13:57.140Z,10.80
2022-12-26T18:16:29.650Z,10.70
2022-12-26T18:19:01.608Z,10.60
2022-12-26T18:21:32.509Z,10.50
2022-12-26T18:24:03.529Z,10.40
2022-12-26T18:26:35.400Z,10.30
2022-12-26T18:29:06.358Z,10.40
2022-12-26T18:31:37.712Z,10.30
2022-12-26T18:34:08.683Z,10.20
2022-12-26T18:36:42.214Z,10.10
2022-12-26T18:39:17.054Z,9.90
2022-12-26T18:41:47.945Z,9.80
2022-12-26T18:44:20.558Z,9.70
2022-12-26T18:46:51.906Z,9.50
2022-12-26T18:49:22.797Z,9.50
2022-12-26T18:51:53.665Z,9.40
2022-12-26T18:54:24.643Z,9.20
2022-12-26T18:56:55.581Z,9.10
2022-12-26T18:59:26.487Z,9.00
2022-12-26T19:01:57.413Z,9.00
2022-12-26T19:04:28.405Z,8.80
2022-12-26T19:06:59.297Z,8.80
2022-12-26T19:09:30.150Z,8.80
2022-12-26T19:12:01.069Z,8.80
2022-12-26T19:14:31.943Z,8.80
2022-12-26T19:17:02.919Z,8.80
2022-12-26T19:19:33.861Z,8.90
2022-12-26T19:22:04.832Z,8.90
2022-12-26T19:24:36.570Z,9.00
2022-12-26T19:27:07.623Z,9.00
2022-12-26T19:29:38.600Z,9.10
2022-12-26T19:32:09.561Z,9.10
2022-12-26T19:34:40.448Z,9.10
2022-12-26T19:37:11.326Z,9.10
2022-12-26T19:39:42.222Z,9.20
2022-12-26T19:42:13.089Z,9.20
2022-12-26T19:44:44.624Z,9.30
2022-12-26T19:47:15.691Z,9.20
2022-12-26T19:49:46.566Z,9.10
2022-12-26T19:52:17.829Z,9.10
2022-12-26T19:54:48.694Z,9.10
2022-12-26T19:57:19.793Z,9.00
2022-12-26T19:59:51.167Z,9.00
2022-12-26T20:02:24.885Z,9.10
2022-12-26T20:04:55.873Z,9.10
2022-12-26T20:07:26.760Z,9.10
2022-12-26T20:09:57.593Z,9.10
2022-12-26T20:12:28.494Z,9.10
2022-12-26T20:14:59.434Z,9.10
2022-12-26T20:17:30.370Z,9.20
2022-12-26T20:20:01.252Z,9.20
2022-12-26T20:22:32.113Z,9.20
2022-12-26T20:25:04.140Z,9.20
2022-12-26T20:27:35.274Z,9.20
2022-12-26T20:30:07.532Z,9.20
2022-12-26T20:32:38.436Z,9.20
2022-12-26T20:35:09.825Z,9.10
2022-12-26T20:37:40.694Z,9.20
2022-12-26T20:40:12.154Z,9.20
2022-12-26T20:42:42.981Z,9.20
2022-12-26T20:45:13.893Z,9.20
2022-12-26T20:47:44.811Z,9.20
2022-12-26T20:50:17.536Z,9.20
2022-12-26T20:52:48.392Z,9.20
2022-12-26T20:55:19.345Z,9.20
2022-12-26T20:57:50.243Z,9.20
2022-12-26T21:00:21.273Z,9.20
2022-12-26T21:02:53.369Z,9.10
2022-12-26T21:05:25.435Z,9.20
2022-12-26T21:07:56.291Z,9.20
2022-12-26T21:10:27.195Z,9.10
2022-12-26T21:12:58.345Z,9.20
2022-12-26T21:15:29.284Z,9.10
2022-12-26T21:18:00.150Z,9.10
2022-12-26T21:20:31.679Z,9.10
2022-12-26T21:23:02.555Z,9.10
2022-12-26T21:25:33.771Z,9.10
2022-12-26T21:28:04.871Z,9.00
2022-12-26T21:30:35.789Z,9.00
2022-12-26T21:33:06.685Z,9.00
2022-12-26T21:35:38.186Z,8.90
2022-12-26T21:38:09.090Z,8.90
2022-12-26T21:40:43.856Z,8.90
2022-12-26T21:43:14.879Z,9.00
2022-12-26T21:45:45.908Z,9.00
2022-12-26T21:48:16.988Z,9.00
2022-12-26T21:50:47.848Z,8.90
2022-12-26T21:53:18.746Z,8.90
2022-12-26T21:55:49.648Z,8.90
2022-12-26T21:58:20.484Z,8.90
2022-12-26T22:00:51.393Z,8.80
2022-12-26T22:03:40.725Z,8.80
2022-12-26T22:06:20.695Z,8.80
2022-12-26T22:08:52.030Z,8.80
2022-12-26T22:11:48.986Z,8.70
2022-12-26T22:14:20.059Z,8.70
2022-12-26T22:16:55.320Z,8.60
2022-12-26T22:19:26.571Z,8.60
2022-12-26T22:21:57.575Z,8.60
2022-12-26T22:24:30.257Z,8.60
2022-12-26T22:27:01.143Z,8.60
2022-12-26T22:29:32.036Z,8.60
2022-12-26T22:32:03.018Z,8.50
2022-12-26T22:34:33.894Z,8.50
2022-12-26T22:37:04.879Z,8.50
2022-12-26T22:39:35.792Z,8.50
2022-12-26T22:42:06.672Z,8.40
2022-12-26T22:44:37.550Z,8.40
2022-12-26T22:47:08.418Z,8.40
2022-12-26T22:49:39.255Z,8.40
2022-12-26T22:52:15.645Z,8.40
2022-12-26T22:54:46.966Z,8.50
2022-12-26T22:57:17.859Z,8.40
2022-12-26T23:02:39.809Z,8.50
2022-12-26T23:05:12.607Z,8.40
2022-12-26T23:07:43.809Z,8.50
2022-12-26T23:10:23.035Z,8.40
2022-12-26T23:12:54.542Z,8.40
2022-12-26T23:15:27.891Z,8.50
2022-12-26T23:18:43.103Z,8.40
2022-12-26T23:21:48.716Z,8.40
2022-12-26T23:24:26.393Z,8.40
2022-12-26T23:27:22.738Z,8.30
2022-12-26T23:30:13.312Z,8.30
2022-12-26T23:32:50.313Z,8.20
2022-12-26T23:35:22.818Z,8.20
2022-12-26T23:37:54.581Z,8.20
2022-12-26T23:40:25.533Z,8.20
2022-12-26T23:42:56.379Z,8.20
2022-12-26T23:45:27.282Z,8.20
2022-12-26T23:47:58.183Z,8.10
2022-12-26T23:50:29.142Z,8.10
2022-12-26T23:52:59.993Z,8.10
2022-12-26T23:55:30.931Z,8.00
2022-12-26T23:58:01.933Z,8.00
